Latest Weather Observations for Toowoomba

IDQ60901

Issued at 4:51 pm EST Thursday 23 February 2017 (issued every 10 minutes, with the page automatically refreshed every 10 minutes)

About weather observations | Map of Brisbane area stations | Latest observations for Brisbane area | Other Formats
Station Details ID: 041529 Name: TOOWOOMBA AIRPORT Lat: -27.54 Lon: 151.91 Height: 640.9 m
Data from the previous 72 hours. | See also: Recent months at Toowoomba
Date/Time
EST
Temp
°C
App
Temp
°C
Dew
Point
°C
Rel
Hum
%
Delta-T
°C
Wind Press
QNH
hPa
Press
MSL
hPa
Rain since
9am
mm
Dir  Spd
km/h
Gust
km/h
Spd
kts
Gust
kts
23/04:30pm 27.5 23.7 11.1 36 9.6 E 22 32 12 17 1020.3 1016.7 0.0
23/04:00pm 27.3 23.7 10.5 35 9.7 E 20 35 11 19 1020.3 1016.7 0.0
23/03:30pm 27.1 23.6 10.8 36 9.5 E 20 30 11 16 1020.4 1016.8 0.0
23/03:00pm 27.3 23.4 10.9 36 9.5 E 22 33 12 18 1020.4 1016.8 0.0
23/02:30pm 26.8 22.7 11.3 38 9.1 E 24 32 13 17 1020.8 1017.2 0.0
23/02:00pm 27.0 23.2 11.1 37 9.3 E 22 35 12 19 1021.0 1017.4 0.0
23/01:30pm 26.4 22.9 12.1 41 8.5 E 22 32 12 17 1021.3 1017.8 0.0
23/01:00pm 25.6 22.5 12.1 43 7.9 E 20 33 11 18 1021.5 1018.0 0.0
23/12:30pm 25.4 21.3 11.6 42 8.1 ESE 24 33 13 18 1021.7 1018.2 0.0
23/12:00pm 24.3 21.3 12.6 48 6.9 ENE 20 37 11 20 1022.0 1018.4 0.0
23/11:30am 24.7 21.1 13.0 48 7.0 E 24 33 13 18 1022.1 1018.5 0.0
23/11:00am 23.4 20.1 12.7 51 6.3 E 22 35 12 19 1022.6 1019.1 0.0
23/10:30am 22.8 20.3 14.1 58 5.2 E 20 32 11 17 1023.0 1019.5 0.0
23/10:00am 22.2 19.1 13.5 57 5.2 E 22 32 12 17 1023.2 1019.7 0.0
23/09:30am 21.7 18.9 13.1 58 5.1 E 20 30 11 16 1023.1 1019.6 0.0
23/09:00am 21.2 16.5 13.1 60 4.7 E 30 41 16 22 1022.9 1019.4 0.0
23/08:30am 21.2 16.9 13.1 60 4.8 E 28 39 15 21 1022.6 1019.1 0.0
23/08:00am 20.3 14.9 12.3 60 4.6 E 32 43 17 23 1022.3 1018.7 0.0
23/07:30am 19.6 14.7 12.4 63 4.2 E 30 41 16 22 1022.1 1018.5 0.0
23/07:00am 18.5 13.6 12.7 69 3.3 ESE 30 43 16 23 1021.6 1018.1 0.0
23/06:30am 17.5 13.1 12.8 74 2.7 ESE 28 37 15 20 1021.4 1017.9 0.0
23/06:00am 16.6 12.7 13.3 81 1.9 E 26 33 14 18 1021.3 1017.8 0.0
23/05:30am 16.2 12.0 13.5 84 1.6 E 28 33 15 18 1021.0 1017.4 0.0
23/05:00am 16.2 12.4 13.7 85 1.4 ESE 26 35 14 19 1021.0 1017.4 0.0
23/04:30am 16.1 12.7 13.8 86 1.3 E 24 28 13 15 1020.9 1017.3 0.0
23/04:00am 16.1 13.5 13.8 86 1.3 ESE 20 24 11 13 1021.0 1017.4 0.0
23/03:30am 16.4 14.0 13.9 85 1.5 E 19 24 10 13 1021.0 1017.4 0.0
23/03:00am 16.4 13.0 13.7 84 1.6 E 24 28 13 15 1021.1 1017.6 0.0
23/02:30am 16.6 13.3 13.9 84 1.6 E 24 30 13 16 1021.3 1017.8 0.0
23/02:00am 16.4 13.4 13.7 84 1.6 E 22 28 12 15 1021.6 1018.1 0.0
23/01:30am 16.8 13.4 13.7 82 1.8 E 24 30 13 16 1021.6 1018.1 0.0
23/01:00am 16.9 13.1 13.6 81 1.9 E 26 32 14 17 1021.7 1018.2 0.0
23/12:30am 17.3 12.7 13.6 79 2.2 E 30 39 16 21 1021.9 1018.3 0.0
23/12:00am 17.6 12.6 13.5 77 2.4 E 32 41 17 22 1022.2 1018.6 0.0
 
Date/Time
EST
Temp
°C
App
Temp
°C
Dew
Point
°C
Rel
Hum
%
Delta-T
°C
Wind Press
QNH
hPa
Press
MSL
hPa
Rain since
9am
mm
Dir  Spd
km/h
Gust
km/h
Spd
kts
Gust
kts
22/11:30pm 17.9 12.8 13.6 76 2.5 E 33 41 18 22 1022.4 1018.8 0.0
22/11:00pm 18.2 13.8 14.1 77 2.4 E 30 39 16 21 1022.5 1019.0 0.0
22/10:30pm 18.7 14.3 14.2 75 2.7 E 30 41 16 22 1022.5 1019.0 0.0
22/10:00pm 19.0 15.2 14.7 76 2.6 E 28 39 15 21 1022.6 1019.1 0.0
22/09:30pm 19.4 14.9 14.9 75 2.7 E 32 39 17 21 1022.7 1019.2 0.0
22/09:00pm 19.8 16.6 15.2 75 2.8 E 26 37 14 20 1022.6 1019.1 0.0
22/08:30pm 20.3 15.8 14.9 71 3.3 E 32 41 17 22 1022.4 1018.8 0.0
22/08:00pm 20.8 17.3 14.5 67 3.8 E 26 33 14 18 1022.0 1018.4 0.0
22/07:30pm 21.5 17.9 14.2 63 4.4 E 26 35 14 19 1021.6 1018.1 0.0
22/07:00pm 22.0 18.0 14.1 61 4.7 E 28 37 15 20 1021.1 1017.6 0.0
22/06:30pm 22.7 19.5 14.3 59 5.1 ENE 24 32 13 17 1020.8 1017.2 0.0
22/06:00pm 23.7 19.6 13.8 53 5.9 E 28 35 15 19 1020.4 1016.8 0.0
22/05:30pm 24.7 20.3 14.2 52 6.4 E 30 39 16 21 1020.1 1016.6 0.0
22/05:00pm 25.5 21.5 14.0 49 7.0 E 28 37 15 20 1019.8 1016.3 0.0
22/04:30pm 26.3 22.6 13.8 46 7.6 E 26 33 14 18 1019.8 1016.3 0.0
22/04:00pm 26.3 22.7 13.1 44 7.9 E 24 32 13 17 1019.8 1016.3 0.0
22/03:30pm 26.6 22.3 13.3 43 8.0 E 28 35 15 19 1019.8 1016.3 0.0
22/03:00pm 26.9 23.4 14.6 46 7.6 E 26 35 14 19 1020.1 1016.6 0.0
22/02:30pm 26.5 23.9 13.9 45 7.7 E 20 30 11 16 1020.4 1016.8 0.0
22/02:00pm 26.7 23.2 13.4 43 8.0 E 24 37 13 20 1020.6 1017.0 0.0
22/01:30pm 26.4 22.8 13.2 44 8.0 E 24 37 13 20 1021.0 1017.4 0.0
22/01:00pm 25.3 21.6 13.8 49 6.9 E 26 35 14 19 1021.6 1018.1 0.0
22/12:30pm 24.7 21.9 14.2 52 6.4 E 22 35 12 19 1022.0 1018.4 0.0
22/12:00pm 24.5 20.2 14.3 53 6.2 E 30 41 16 22 1022.2 1018.6 0.0
22/11:30am 23.1 18.5 14.7 59 5.1 E 32 41 17 22 1022.3 1018.7 0.0
22/11:00am 23.9 19.0 14.3 55 5.8 E 33 43 18 23 1022.8 1019.3 0.0
22/10:30am 22.6 17.4 14.4 60 5.0 E 35 43 19 23 1022.8 1019.3 0.0
22/10:00am 21.6 16.8 14.7 65 4.2 E 33 43 18 23 1022.8 1019.3 0.0
22/09:30am 21.4 16.9 15.5 69 3.6 E 33 46 18 25 1022.8 1019.3 0.0
22/09:00am 19.9 14.9 15.1 74 2.9 E 35 46 19 25 1023.0 1019.5 0.0
22/08:30am 19.6 15.1 15.3 76 2.6 E 33 44 18 24 1022.9 1019.4 0.0
22/08:00am 19.8 15.2 14.6 72 3.1 E 32 41 17 22 1022.7 1019.2 0.0
22/07:30am 19.4 16.2 15.3 77 2.5 E 26 35 14 19 1022.6 1019.1 0.0
22/07:00am 18.7 15.0 15.0 79 2.2 E 28 37 15 20 1022.3 1018.7 0.0
22/06:30am 18.2 14.1 14.9 81 2.0 E 30 37 16 20 1021.9 1018.3 0.0
22/06:00am 18.0 14.2 14.7 81 2.0 E 28 33 15 18 1021.5 1018.0 0.0
22/05:30am 18.0 14.3 15.1 83 1.7 E 28 37 15 20 1021.3 1017.8 0.0
22/05:00am 18.2 14.5 15.1 82 1.9 E 28 37 15 20 1020.9 1017.3 0.0
22/04:30am 18.2 13.8 15.1 82 1.9 E 32 39 17 21 1020.7 1017.1 0.0
22/04:00am 18.2 13.6 15.1 82 1.9 E 33 43 18 23 1020.4 1016.8 0.0
22/03:30am 18.2 12.8 15.1 82 1.9 E 37 44 20 24 1020.3 1016.7 0.0
22/03:00am 18.2 13.3 15.3 83 1.7 E 35 43 19 23 1020.0 1016.5 0.0
22/02:30am 18.2 13.7 15.3 83 1.7 E 33 39 18 21 1020.3 1016.7 0.0
22/02:00am 18.3 13.4 15.2 82 1.9 E 35 44 19 24 1020.7 1017.1 0.0
22/01:30am 18.4 13.9 15.5 83 1.8 E 33 43 18 23 1020.8 1017.2 0.0
22/01:00am 18.6 13.3 15.3 81 2.0 E 37 44 20 24 1020.8 1017.2 0.0
22/12:30am 18.8 13.9 15.3 80 2.1 E 35 48 19 26 1021.0 1017.4 0.0
22/12:00am 19.0 14.4 15.1 78 2.3 E 33 43 18 23 1021.1 1017.6 0.0
 
Date/Time
EST
Temp
°C
App
Temp
°C
Dew
Point
°C
Rel
Hum
%
Delta-T
°C
Wind Press
QNH
hPa
Press
MSL
hPa
Rain since
9am
mm
Dir  Spd
km/h
Gust
km/h
Spd
kts
Gust
kts
21/11:30pm 19.1 14.6 15.0 77 2.5 E 32 39 17 21 1021.3 1017.8 0.0
21/11:16pm 19.3 14.7 15.0 76 2.6 E 33 52 18 28 1021.2 1017.7 0.0
21/11:00pm 19.4 13.6 14.9 75 2.7 E 39 54 21 29 1021.1 1017.6 0.0
21/10:30pm 19.6 14.1 14.6 73 3.0 E 37 52 20 28 1021.2 1017.7 0.0
21/10:00pm 19.8 14.2 14.4 71 3.2 E 37 50 20 27 1021.3 1017.8 0.0
21/09:30pm 20.1 14.9 14.5 70 3.4 E 35 50 19 27 1021.3 1017.8 0.0
21/09:00pm 20.3 15.2 14.7 70 3.4 E 35 46 19 25 1021.6 1018.1 0.0
21/08:30pm 20.6 15.3 16.4 77 2.6 E 39 50 21 27 1021.2 1017.7 0.0
21/08:00pm 21.2 16.2 17.0 77 2.6 E 39 50 21 27 1020.9 1017.3 0.0
21/07:30pm 21.8 17.2 16.1 70 3.5 E 35 46 19 25 1020.7 1017.1 0.0
21/07:00pm 22.3 18.1 16.3 69 3.7 E 33 44 18 24 1020.5 1016.9 0.0
21/06:30pm 23.2 18.8 16.7 67 4.1 E 35 44 19 24 1020.0 1016.5 0.0
21/06:00pm 24.2 20.7 16.5 62 4.8 E 30 43 16 23 1019.8 1016.3 0.0
21/05:30pm 25.2 21.3 15.5 55 6.0 E 30 39 16 21 1019.4 1015.8 0.0
21/05:00pm 26.0 22.2 14.8 50 6.9 E 28 43 15 23 1018.9 1015.3 0.0
21/04:30pm 27.3 23.0 10.9 36 9.6 E 24 32 13 17 1018.8 1015.2 0.0
21/04:00pm 27.8 24.6 11.4 36 9.6 E 19 28 10 15 1018.8 1015.2 0.0
21/03:30pm 28.0 25.0 12.4 38 9.3 E 20 32 11 17 1018.9 1015.3 0.0
21/03:00pm 28.8 26.3 13.5 39 9.3 E 19 32 10 17 1018.9 1015.3 0.0
21/02:30pm 27.3 24.5 12.5 40 8.8 ESE 19 26 10 14 1019.1 1015.5 0.0
21/02:00pm 27.2 24.3 12.4 40 8.8 ESE 19 28 10 15 1019.1 1015.5 0.0
21/01:30pm 27.5 25.0 12.3 39 9.1 ENE 17 22 9 12 1019.6 1016.0 0.0
21/01:00pm 27.2 25.1 13.5 42 8.3 NE 17 24 9 13 1019.8 1016.3 0.0
21/12:30pm 26.7 24.5 12.0 40 8.7 ENE 15 26 8 14 1019.9 1016.4 0.0
21/12:00pm 26.9 24.8 13.6 44 8.1 ESE 17 24 9 13 1020.3 1016.7 0.0
21/11:30am 26.2 25.0 14.0 47 7.4 ESE 13 22 7 12 1020.6 1017.0 0.0
21/11:00am 25.9 24.7 16.2 55 6.1 E 17 26 9 14 1020.9 1017.3 0.0
21/10:30am 25.4 23.8 16.5 58 5.6 ENE 20 28 11 15 1021.1 1017.6 0.0
21/10:00am 24.2 22.6 16.5 62 4.8 E 20 28 11 15 1021.3 1017.8 0.0
21/09:30am 23.6 21.0 16.9 66 4.2 E 26 35 14 19 1021.3 1017.8 0.0
21/09:00am 23.2 20.6 17.7 71 3.5 E 28 33 15 18 1021.2 1017.7 0.0
21/08:30am 21.8 19.6 17.8 78 2.5 E 26 32 14 17 1021.2 1017.7 0.0
21/08:00am 20.6 19.1 17.8 84 1.8 E 22 32 12 17 1020.8 1017.2 0.0
21/07:39am 20.5 19.3 18.3 87 1.4 E 22 30 12 16 1020.6 1017.0 0.0
21/07:30am 19.8 18.1 18.1 90 1.1 E 24 30 13 16 1020.5 1016.9 0.0
21/07:00am 19.6 19.0 18.9 96 0.4 E 20 24 11 13 1020.3 1016.7 0.0
21/06:52am 19.4 18.7 18.7 96 0.4 E 20 24 11 13 1020.1 1016.6 0.0
21/06:30am 19.2 17.8 18.7 97 0.3 E 24 28 13 15 1019.8 1016.3 0.0
21/06:00am 18.8 17.6 18.3 97 0.3 E 22 30 12 16 1019.4 1015.8 0.0
21/05:30am 18.6 17.2 17.9 96 0.4 E 22 28 12 15 1018.9 1015.3 0.0
21/05:00am 18.8 17.1 18.1 96 0.4 E 24 30 13 16 1018.4 1014.9 0.0
21/04:30am 18.8 17.5 18.1 96 0.4 E 22 28 12 15 1018.1 1014.5 0.0
21/04:00am 18.8 17.1 18.1 96 0.4 E 24 30 13 16 1017.7 1014.1 0.0
21/03:30am 18.9 17.2 18.2 96 0.4 E 24 28 13 15 1017.7 1014.1 0.0
21/03:00am 18.9 16.8 18.1 95 0.5 E 26 30 14 16 1017.5 1013.9 0.0
21/02:30am 18.9 16.7 17.9 94 0.6 E 26 30 14 16 1017.5 1013.9 0.0
21/02:00am 19.0 17.3 18.2 95 0.5 E 24 30 13 16 1017.6 1014.0 0.0
21/01:30am 19.1 17.0 18.1 94 0.6 E 26 32 14 17 1017.6 1014.0 0.0
21/01:00am 19.0 17.3 18.0 94 0.6 E 24 30 13 16 1018.1 1014.5 0.0
21/12:30am 19.1 17.3 17.9 93 0.8 E 24 28 13 15 1018.3 1014.8 0.0
21/12:00am 19.3 17.6 18.0 92 0.8 E 24 32 13 17 1018.7 1015.1 0.0
 
Date/Time
EST
Temp
°C
App
Temp
°C
Dew
Point
°C
Rel
Hum
%
Delta-T
°C
Wind Press
QNH
hPa
Press
MSL
hPa
Rain since
9am
mm
Dir  Spd
km/h
Gust
km/h
Spd
kts
Gust
kts
20/11:30pm 19.3 16.6 17.6 90 1.1 E 28 33 15 18 1018.6 1015.0 0.0
20/11:00pm 19.3 16.9 16.3 83 1.8 ESE 24 30 13 16 1018.7 1015.1 0.0
20/10:30pm 19.8 16.4 14.8 73 3.0 E 26 32 14 17 1018.6 1015.0 0.0
20/10:00pm 20.2 17.0 13.2 64 4.1 E 22 28 12 15 1018.7 1015.1 0.0
20/09:30pm 20.7 18.1 11.9 57 5.1 E 17 22 9 12 1018.7 1015.1 0.0
20/09:00pm 20.0 18.2 9.6 51 5.7 SE 9 15 5 8 1018.1 1014.5 0.0
20/08:30pm 21.7 19.8 6.8 38 7.9 SW 6 7 3 4 1017.7 1014.1 0.0
20/08:00pm 22.0 20.1 7.4 39 7.8 SW 7 9 4 5 1017.3 1013.7 0.0
20/07:30pm 22.1 19.9 7.9 40 7.7 WSW 9 11 5 6 1017.0 1013.4 0.0
20/07:00pm 22.6 20.2 6.8 36 8.4 WSW 9 13 5 7 1016.2 1012.6 0.0
20/06:30pm 23.4 20.4 6.2 33 9.1 WSW 11 13 6 7 1015.9 1012.3 0.0
20/06:00pm 24.2 20.7 5.5 30 9.8 WSW 13 19 7 10 1015.5 1011.9 0.0
20/05:30pm 24.9 20.2 5.2 28 10.3 WSW 19 24 10 13 1014.9 1011.3 0.0
20/05:00pm 25.3 21.2 4.4 26 10.8 W 15 20 8 11 1014.5 1010.9 0.0

Latest Capital City Observations: Canberra | Sydney | Melbourne | Brisbane | Adelaide | Perth | Hobart | Darwin

Other Formats:

Comma delimited format used in spreadsheet applications
http://www.bom.gov.au/fwo/IDQ60901/IDQ60901.95551.axf

JavaScript Object Notation format (JSON) in row-major order
http://www.bom.gov.au/fwo/IDQ60901/IDQ60901.95551.json